sensor_id;sensor_type;location;lat;lon;timestamp;temperature;humidity
4596;DHT22;2310;49.978;8.742;2023-06-22T00:03:08;23.30;99.90
4596;DHT22;2310;49.978;8.742;2023-06-22T00:07:10;23.60;99.90
4596;DHT22;2310;49.978;8.742;2023-06-22T00:11:11;23.80;99.90
4596;DHT22;2310;49.978;8.742;2023-06-22T00:15:13;23.80;99.90
4596;DHT22;2310;49.978;8.742;2023-06-22T00:19:15;24.10;99.90
4596;DHT22;2310;49.978;8.742;2023-06-22T00:23:17;24.30;99.90
4596;DHT22;2310;49.978;8.742;2023-06-22T00:27:18;24.40;99.90
4596;DHT22;2310;49.978;8.742;2023-06-22T00:31:20;24.40;99.90
4596;DHT22;2310;49.978;8.742;2023-06-22T00:35:21;24.50;99.90
4596;DHT22;2310;49.978;8.742;2023-06-22T00:39:23;24.60;99.90
4596;DHT22;2310;49.978;8.742;2023-06-22T00:43:24;24.60;99.90
4596;DHT22;2310;49.978;8.742;2023-06-22T00:47:26;24.60;99.90
4596;DHT22;2310;49.978;8.742;2023-06-22T00:51:28;24.50;99.90
4596;DHT22;2310;49.978;8.742;2023-06-22T00:55:29;24.40;99.90
4596;DHT22;2310;49.978;8.742;2023-06-22T00:59:31;24.30;99.90
4596;DHT22;2310;49.978;8.742;2023-06-22T01:03:33;24.30;99.90
4596;DHT22;2310;49.978;8.742;2023-06-22T01:07:38;24.30;99.90
4596;DHT22;2310;49.978;8.742;2023-06-22T01:11:41;24.40;99.90
4596;DHT22;2310;49.978;8.742;2023-06-22T01:19:54;24.40;99.90
4596;DHT22;2310;49.978;8.742;2023-06-22T01:32:31;23.90;99.90
4596;DHT22;2310;49.978;8.742;2023-06-22T01:36:34;23.70;99.90
4596;DHT22;2310;49.978;8.742;2023-06-22T01:40:36;22.60;99.90
4596;DHT22;2310;49.978;8.742;2023-06-22T01:44:38;22.10;99.90
4596;DHT22;2310;49.978;8.742;2023-06-22T01:48:40;21.90;99.90
4596;DHT22;2310;49.978;8.742;2023-06-22T01:52:42;22.10;99.90
4596;DHT22;2310;49.978;8.742;2023-06-22T01:56:43;22.60;99.90
4596;DHT22;2310;49.978;8.742;2023-06-22T02:00:48;22.90;99.90
4596;DHT22;2310;49.978;8.742;2023-06-22T02:05:05;23.00;99.90
4596;DHT22;2310;49.978;8.742;2023-06-22T02:09:09;23.10;99.90
4596;DHT22;2310;49.978;8.742;2023-06-22T02:13:13;23.30;99.90
4596;DHT22;2310;49.978;8.742;2023-06-22T02:17:17;23.40;99.90
4596;DHT22;2310;49.978;8.742;2023-06-22T02:21:20;23.60;99.90
4596;DHT22;2310;49.978;8.742;2023-06-22T02:25:21;23.60;99.90
4596;DHT22;2310;49.978;8.742;2023-06-22T02:29:23;23.60;99.90
4596;DHT22;2310;49.978;8.742;2023-06-22T02:33:24;23.60;99.90
4596;DHT22;2310;49.978;8.742;2023-06-22T02:37:25;23.50;99.90
4596;DHT22;2310;49.978;8.742;2023-06-22T02:41:29;23.30;99.90
4596;DHT22;2310;49.978;8.742;2023-06-22T02:45:30;23.50;99.90
4596;DHT22;2310;49.978;8.742;2023-06-22T02:49:32;23.40;99.90
4596;DHT22;2310;49.978;8.742;2023-06-22T02:53:33;23.50;99.90
4596;DHT22;2310;49.978;8.742;2023-06-22T02:57:35;23.50;99.90
4596;DHT22;2310;49.978;8.742;2023-06-22T03:01:37;23.60;99.90
4596;DHT22;2310;49.978;8.742;2023-06-22T03:05:41;23.60;99.90
4596;DHT22;2310;49.978;8.742;2023-06-22T03:09:43;23.50;99.90
4596;DHT22;2310;49.978;8.742;2023-06-22T03:13:44;23.40;99.90
4596;DHT22;2310;49.978;8.742;2023-06-22T03:17:47;23.30;99.90
4596;DHT22;2310;49.978;8.742;2023-06-22T03:21:48;23.30;99.90
4596;DHT22;2310;49.978;8.742;2023-06-22T03:25:50;23.10;99.90
4596;DHT22;2310;49.978;8.742;2023-06-22T03:29:51;22.90;99.90
4596;DHT22;2310;49.978;8.742;2023-06-22T03:33:53;23.00;99.90
4596;DHT22;2310;49.978;8.742;2023-06-22T03:37:54;22.80;99.90
4596;DHT22;2310;49.978;8.742;2023-06-22T03:41:56;22.80;99.90
4596;DHT22;2310;49.978;8.742;2023-06-22T03:45:57;22.80;99.90
4596;DHT22;2310;49.978;8.742;2023-06-22T03:49:59;22.70;99.90
4596;DHT22;2310;49.978;8.742;2023-06-22T03:54:00;22.60;99.90
4596;DHT22;2310;49.978;8.742;2023-06-22T03:58:01;22.50;99.90
4596;DHT22;2310;49.978;8.742;2023-06-22T04:02:05;22.40;99.90
4596;DHT22;2310;49.978;8.742;2023-06-22T04:06:06;22.50;99.90
4596;DHT22;2310;49.978;8.742;2023-06-22T04:10:08;22.40;99.90
4596;DHT22;2310;49.978;8.742;2023-06-22T04:14:11;22.20;99.90
4596;DHT22;2310;49.978;8.742;2023-06-22T04:18:12;22.10;99.90
4596;DHT22;2310;49.978;8.742;2023-06-22T04:22:14;22.10;99.90
4596;DHT22;2310;49.978;8.742;2023-06-22T04:26:16;22.10;99.90
4596;DHT22;2310;49.978;8.742;2023-06-22T04:30:17;22.00;99.90
4596;DHT22;2310;49.978;8.742;2023-06-22T04:34:19;21.90;99.90
4596;DHT22;2310;49.978;8.742;2023-06-22T04:38:20;22.00;99.90
4596;DHT22;2310;49.978;8.742;2023-06-22T04:42:22;22.00;99.90
4596;DHT22;2310;49.978;8.742;2023-06-22T04:46:24;21.80;99.90
4596;DHT22;2310;49.978;8.742;2023-06-22T04:50:25;21.70;99.90
4596;DHT22;2310;49.978;8.742;2023-06-22T04:54:27;21.90;99.90
4596;DHT22;2310;49.978;8.742;2023-06-22T04:58:28;22.00;99.90
4596;DHT22;2310;49.978;8.742;2023-06-22T05:02:30;22.10;99.90
4596;DHT22;2310;49.978;8.742;2023-06-22T05:06:33;22.30;99.90
4596;DHT22;2310;49.978;8.742;2023-06-22T05:10:34;22.40;99.90
4596;DHT22;2310;49.978;8.742;2023-06-22T05:14:35;22.60;99.90
4596;DHT22;2310;49.978;8.742;2023-06-22T05:18:37;22.90;99.90
4596;DHT22;2310;49.978;8.742;2023-06-22T05:22:39;23.10;99.90
4596;DHT22;2310;49.978;8.742;2023-06-22T05:26:40;23.30;99.90
4596;DHT22;2310;49.978;8.742;2023-06-22T05:30:41;23.40;99.90
4596;DHT22;2310;49.978;8.742;2023-06-22T05:34:43;23.70;99.90
4596;DHT22;2310;49.978;8.742;2023-06-22T05:38:44;24.10;99.90
4596;DHT22;2310;49.978;8.742;2023-06-22T05:42:45;24.10;99.90
4596;DHT22;2310;49.978;8.742;2023-06-22T05:46:47;24.00;99.90
4596;DHT22;2310;49.978;8.742;2023-06-22T05:50:49;24.00;99.90
4596;DHT22;2310;49.978;8.742;2023-06-22T05:54:51;24.20;99.90
4596;DHT22;2310;49.978;8.742;2023-06-22T05:58:52;24.20;99.90
4596;DHT22;2310;49.978;8.742;2023-06-22T06:02:53;24.20;99.90
4596;DHT22;2310;49.978;8.742;2023-06-22T06:06:55;24.30;99.90
4596;DHT22;2310;49.978;8.742;2023-06-22T06:10:56;24.40;99.90
4596;DHT22;2310;49.978;8.742;2023-06-22T06:14:58;24.40;99.90
4596;DHT22;2310;49.978;8.742;2023-06-22T06:19:00;24.20;99.90
4596;DHT22;2310;49.978;8.742;2023-06-22T06:23:01;24.20;99.90
4596;DHT22;2310;49.978;8.742;2023-06-22T06:27:03;24.60;99.90
4596;DHT22;2310;49.978;8.742;2023-06-22T06:31:05;24.90;99.90
4596;DHT22;2310;49.978;8.742;2023-06-22T06:35:09;25.40;99.90
4596;DHT22;2310;49.978;8.742;2023-06-22T06:39:10;25.70;99.90
4596;DHT22;2310;49.978;8.742;2023-06-22T06:43:13;26.20;99.90
4596;DHT22;2310;49.978;8.742;2023-06-22T06:47:14;26.20;99.90
4596;DHT22;2310;49.978;8.742;2023-06-22T06:51:15;26.30;99.90
4596;DHT22;2310;49.978;8.742;2023-06-22T06:55:17;26.20;99.90
4596;DHT22;2310;49.978;8.742;2023-06-22T06:59:18;26.10;99.90
4596;DHT22;2310;49.978;8.742;2023-06-22T07:03:20;26.10;99.90
4596;DHT22;2310;49.978;8.742;2023-06-22T07:07:21;26.30;99.90
4596;DHT22;2310;49.978;8.742;2023-06-22T07:11:22;26.50;99.90
4596;DHT22;2310;49.978;8.742;2023-06-22T07:15:24;26.80;99.90
4596;DHT22;2310;49.978;8.742;2023-06-22T07:19:29;27.00;99.90
4596;DHT22;2310;49.978;8.742;2023-06-22T07:23:29;27.00;99.90
4596;DHT22;2310;49.978;8.742;2023-06-22T07:27:31;27.00;99.90
4596;DHT22;2310;49.978;8.742;2023-06-22T07:31:34;27.20;99.90
4596;DHT22;2310;49.978;8.742;2023-06-22T07:35:35;27.20;99.90
4596;DHT22;2310;49.978;8.742;2023-06-22T07:39:37;27.20;99.90
4596;DHT22;2310;49.978;8.742;2023-06-22T07:43:38;27.20;99.90
4596;DHT22;2310;49.978;8.742;2023-06-22T07:47:40;27.00;99.90
4596;DHT22;2310;49.978;8.742;2023-06-22T07:51:41;27.00;99.90
4596;DHT22;2310;49.978;8.742;2023-06-22T07:55:42;27.00;99.90
4596;DHT22;2310;49.978;8.742;2023-06-22T07:59:44;27.20;99.90
4596;DHT22;2310;49.978;8.742;2023-06-22T08:03:47;27.30;99.90
4596;DHT22;2310;49.978;8.742;2023-06-22T08:07:49;27.70;99.90
4596;DHT22;2310;49.978;8.742;2023-06-22T08:11:51;27.90;99.90
4596;DHT22;2310;49.978;8.742;2023-06-22T08:15:52;28.20;99.90
4596;DHT22;2310;49.978;8.742;2023-06-22T08:19:54;28.50;99.90
4596;DHT22;2310;49.978;8.742;2023-06-22T08:23:56;28.80;99.90
4596;DHT22;2310;49.978;8.742;2023-06-22T08:27:58;28.80;99.90
4596;DHT22;2310;49.978;8.742;2023-06-22T08:32:00;29.10;99.90
4596;DHT22;2310;49.978;8.742;2023-06-22T08:36:01;29.20;99.90
4596;DHT22;2310;49.978;8.742;2023-06-22T08:40:04;29.40;99.90
4596;DHT22;2310;49.978;8.742;2023-06-22T08:44:07;29.70;99.90
4596;DHT22;2310;49.978;8.742;2023-06-22T08:48:08;29.90;99.90
4596;DHT22;2310;49.978;8.742;2023-06-22T08:52:09;29.90;99.90
4596;DHT22;2310;49.978;8.742;2023-06-22T08:56:11;29.70;99.90
4596;DHT22;2310;49.978;8.742;2023-06-22T09:00:13;29.90;99.90
4596;DHT22;2310;49.978;8.742;2023-06-22T09:04:17;30.40;99.90
4596;DHT22;2310;49.978;8.742;2023-06-22T09:08:19;30.50;99.90
4596;DHT22;2310;49.978;8.742;2023-06-22T09:12:20;30.80;99.90
4596;DHT22;2310;49.978;8.742;2023-06-22T09:16:24;31.00;97.50
4596;DHT22;2310;49.978;8.742;2023-06-22T09:20:25;30.90;95.90
4596;DHT22;2310;49.978;8.742;2023-06-22T09:24:26;31.10;96.40
4596;DHT22;2310;49.978;8.742;2023-06-22T09:28:27;31.60;93.30
4596;DHT22;2310;49.978;8.742;2023-06-22T09:32:29;31.90;91.50
4596;DHT22;2310;49.978;8.742;2023-06-22T09:36:30;32.40;89.20
4596;DHT22;2310;49.978;8.742;2023-06-22T09:40:32;32.50;80.50
4596;DHT22;2310;49.978;8.742;2023-06-22T09:44:35;31.80;91.20
4596;DHT22;2310;49.978;8.742;2023-06-22T09:48:36;31.50;90.20
4596;DHT22;2310;49.978;8.742;2023-06-22T09:52:39;30.70;97.20
4596;DHT22;2310;49.978;8.742;2023-06-22T09:56:42;31.50;96.20
4596;DHT22;2310;49.978;8.742;2023-06-22T10:00:44;31.70;90.20
4596;DHT22;2310;49.978;8.742;2023-06-22T10:04:45;31.30;86.80
4596;DHT22;2310;49.978;8.742;2023-06-22T10:08:49;31.10;89.40
4596;DHT22;2310;49.978;8.742;2023-06-22T10:13:02;31.90;80.30
4596;DHT22;2310;49.978;8.742;2023-06-22T10:17:02;31.80;81.70
4596;DHT22;2310;49.978;8.742;2023-06-22T10:21:03;32.00;78.20
4596;DHT22;2310;49.978;8.742;2023-06-22T10:25:06;32.00;77.00
4596;DHT22;2310;49.978;8.742;2023-06-22T10:29:07;31.80;77.30
4596;DHT22;2310;49.978;8.742;2023-06-22T10:33:11;32.00;82.00
4596;DHT22;2310;49.978;8.742;2023-06-22T10:37:13;32.50;77.20
4596;DHT22;2310;49.978;8.742;2023-06-22T10:41:14;32.50;77.40
4596;DHT22;2310;49.978;8.742;2023-06-22T10:45:17;32.80;74.10
4596;DHT22;2310;49.978;8.742;2023-06-22T10:49:18;33.00;74.30
4596;DHT22;2310;49.978;8.742;2023-06-22T10:53:20;32.40;73.90
4596;DHT22;2310;49.978;8.742;2023-06-22T10:57:22;32.50;75.00
4596;DHT22;2310;49.978;8.742;2023-06-22T11:01:23;33.30;75.20
4596;DHT22;2310;49.978;8.742;2023-06-22T11:05:26;33.00;68.60
4596;DHT22;2310;49.978;8.742;2023-06-22T11:09:28;33.30;70.60
4596;DHT22;2310;49.978;8.742;2023-06-22T11:13:30;33.80;67.90
4596;DHT22;2310;49.978;8.742;2023-06-22T11:17:32;34.20;63.80
4596;DHT22;2310;49.978;8.742;2023-06-22T11:21:33;33.80;61.90
4596;DHT22;2310;49.978;8.742;2023-06-22T11:25:35;33.70;64.30
4596;DHT22;2310;49.978;8.742;2023-06-22T11:29:36;33.10;68.10
4596;DHT22;2310;49.978;8.742;2023-06-22T11:33:39;33.20;68.40
4596;DHT22;2310;49.978;8.742;2023-06-22T11:37:41;33.30;67.20
4596;DHT22;2310;49.978;8.742;2023-06-22T11:41:45;33.30;69.10
4596;DHT22;2310;49.978;8.742;2023-06-22T11:45:46;33.10;72.70
4596;DHT22;2310;49.978;8.742;2023-06-22T11:49:48;32.90;70.80
4596;DHT22;2310;49.978;8.742;2023-06-22T11:53:49;33.10;72.10
4596;DHT22;2310;49.978;8.742;2023-06-22T11:57:56;33.50;69.40
4596;DHT22;2310;49.978;8.742;2023-06-22T12:02:00;33.50;68.20
4596;DHT22;2310;49.978;8.742;2023-06-22T12:06:01;33.60;69.90
4596;DHT22;2310;49.978;8.742;2023-06-22T12:10:03;33.00;71.30
4596;DHT22;2310;49.978;8.742;2023-06-22T12:14:05;33.30;73.10
4596;DHT22;2310;49.978;8.742;2023-06-22T12:18:06;32.70;74.40
4596;DHT22;2310;49.978;8.742;2023-06-22T12:22:07;33.00;77.70
4596;DHT22;2310;49.978;8.742;2023-06-22T12:26:09;33.40;76.40
4596;DHT22;2310;49.978;8.742;2023-06-22T12:30:10;33.00;77.40
4596;DHT22;2310;49.978;8.742;2023-06-22T12:34:11;33.30;76.60
4596;DHT22;2310;49.978;8.742;2023-06-22T12:38:13;33.30;75.80
4596;DHT22;2310;49.978;8.742;2023-06-22T12:42:15;33.30;72.10
4596;DHT22;2310;49.978;8.742;2023-06-22T12:46:17;33.80;73.60
4596;DHT22;2310;49.978;8.742;2023-06-22T12:50:18;33.70;72.20
4596;DHT22;2310;49.978;8.742;2023-06-22T12:54:20;33.70;68.60
4596;DHT22;2310;49.978;8.742;2023-06-22T12:58:21;33.70;68.40
4596;DHT22;2310;49.978;8.742;2023-06-22T13:02:23;33.30;73.50
4596;DHT22;2310;49.978;8.742;2023-06-22T13:06:24;33.30;72.60
4596;DHT22;2310;49.978;8.742;2023-06-22T13:10:26;33.80;70.80
4596;DHT22;2310;49.978;8.742;2023-06-22T13:14:27;33.80;72.20
4596;DHT22;2310;49.978;8.742;2023-06-22T13:18:29;33.70;71.90
4596;DHT22;2310;49.978;8.742;2023-06-22T13:22:32;33.80;68.70
4596;DHT22;2310;49.978;8.742;2023-06-22T13:26:34;33.80;69.30
4596;DHT22;2310;49.978;8.742;2023-06-22T13:30:35;34.10;70.70
4596;DHT22;2310;49.978;8.742;2023-06-22T13:34:37;34.30;67.40
4596;DHT22;2310;49.978;8.742;2023-06-22T13:38:39;34.40;67.60
4596;DHT22;2310;49.978;8.742;2023-06-22T13:42:40;34.50;63.60
4596;DHT22;2310;49.978;8.742;2023-06-22T13:46:42;34.40;63.00
4596;DHT22;2310;49.978;8.742;2023-06-22T13:50:43;34.60;63.60
4596;DHT22;2310;49.978;8.742;2023-06-22T13:54:45;34.30;64.30
4596;DHT22;2310;49.978;8.742;2023-06-22T13:58:46;34.50;62.90
4596;DHT22;2310;49.978;8.742;2023-06-22T14:02:48;33.90;63.70
4596;DHT22;2310;49.978;8.742;2023-06-22T14:06:49;33.80;64.10
4596;DHT22;2310;49.978;8.742;2023-06-22T14:10:50;34.20;62.40
4596;DHT22;2310;49.978;8.742;2023-06-22T14:14:51;34.20;56.40
4596;DHT22;2310;49.978;8.742;2023-06-22T14:18:53;33.80;54.10
4596;DHT22;2310;49.978;8.742;2023-06-22T14:22:57;34.40;55.00
4596;DHT22;2310;49.978;8.742;2023-06-22T14:26:58;34.70;52.10
4596;DHT22;2310;49.978;8.742;2023-06-22T14:31:00;34.40;52.40
4596;DHT22;2310;49.978;8.742;2023-06-22T14:35:02;34.10;51.50
4596;DHT22;2310;49.978;8.742;2023-06-22T14:39:03;34.40;53.00
4596;DHT22;2310;49.978;8.742;2023-06-22T14:43:05;34.40;52.20
4596;DHT22;2310;49.978;8.742;2023-06-22T14:47:07;34.30;52.30
4596;DHT22;2310;49.978;8.742;2023-06-22T14:51:09;34.20;52.70
4596;DHT22;2310;49.978;8.742;2023-06-22T14:55:10;34.40;52.70
4596;DHT22;2310;49.978;8.742;2023-06-22T14:59:12;34.20;52.20
4596;DHT22;2310;49.978;8.742;2023-06-22T15:03:14;33.90;51.80
4596;DHT22;2310;49.978;8.742;2023-06-22T15:07:18;34.10;52.80
4596;DHT22;2310;49.978;8.742;2023-06-22T15:11:19;34.00;51.50
4596;DHT22;2310;49.978;8.742;2023-06-22T15:15:21;33.80;51.60
4596;DHT22;2310;49.978;8.742;2023-06-22T15:19:22;32.80;53.10
4596;DHT22;2310;49.978;8.742;2023-06-22T15:23:23;32.80;54.70
4596;DHT22;2310;49.978;8.742;2023-06-22T15:27:25;32.90;55.20
4596;DHT22;2310;49.978;8.742;2023-06-22T15:31:27;33.10;55.50
4596;DHT22;2310;49.978;8.742;2023-06-22T15:35:28;32.80;56.10
4596;DHT22;2310;49.978;8.742;2023-06-22T15:39:30;33.00;56.40
4596;DHT22;2310;49.978;8.742;2023-06-22T15:43:31;32.70;58.00
4596;DHT22;2310;49.978;8.742;2023-06-22T15:47:32;32.70;59.80
4596;DHT22;2310;49.978;8.742;2023-06-22T15:51:36;32.90;60.60
4596;DHT22;2310;49.978;8.742;2023-06-22T15:55:38;32.60;61.30
4596;DHT22;2310;49.978;8.742;2023-06-22T15:59:40;32.70;60.80
4596;DHT22;2310;49.978;8.742;2023-06-22T16:03:41;32.60;59.80
4596;DHT22;2310;49.978;8.742;2023-06-22T16:07:43;32.90;59.80
4596;DHT22;2310;49.978;8.742;2023-06-22T16:11:44;32.40;59.90
4596;DHT22;2310;49.978;8.742;2023-06-22T16:15:46;32.20;61.80
4596;DHT22;2310;49.978;8.742;2023-06-22T16:19:47;32.10;62.50
4596;DHT22;2310;49.978;8.742;2023-06-22T16:23:48;31.80;64.80
4596;DHT22;2310;49.978;8.742;2023-06-22T16:27:49;31.70;65.20
4596;DHT22;2310;49.978;8.742;2023-06-22T16:31:51;31.30;67.10
4596;DHT22;2310;49.978;8.742;2023-06-22T16:35:52;31.10;67.90
4596;DHT22;2310;49.978;8.742;2023-06-22T16:39:53;30.90;66.20
4596;DHT22;2310;49.978;8.742;2023-06-22T16:43:55;30.80;67.90
4596;DHT22;2310;49.978;8.742;2023-06-22T16:47:56;30.50;67.80
4596;DHT22;2310;49.978;8.742;2023-06-22T16:51:57;30.10;69.50
4596;DHT22;2310;49.978;8.742;2023-06-22T16:55:59;29.40;67.70
4596;DHT22;2310;49.978;8.742;2023-06-22T17:00:00;29.60;68.10
4596;DHT22;2310;49.978;8.742;2023-06-22T17:04:09;29.30;69.90
4596;DHT22;2310;49.978;8.742;2023-06-22T17:08:13;29.70;69.70
4596;DHT22;2310;49.978;8.742;2023-06-22T17:12:17;29.30;72.80
4596;DHT22;2310;49.978;8.742;2023-06-22T17:16:20;29.10;76.90
4596;DHT22;2310;49.978;8.742;2023-06-22T17:20:22;29.00;83.80
4596;DHT22;2310;49.978;8.742;2023-06-22T17:24:26;28.90;91.70
4596;DHT22;2310;49.978;8.742;2023-06-22T17:28:45;28.60;99.90
4596;DHT22;2310;49.978;8.742;2023-06-22T17:32:39;28.20;99.90
4596;DHT22;2310;49.978;8.742;2023-06-22T17:36:45;28.00;99.90
4596;DHT22;2310;49.978;8.742;2023-06-22T17:40:47;27.40;99.90
4596;DHT22;2310;49.978;8.742;2023-06-22T17:44:48;27.10;99.90
4596;DHT22;2310;49.978;8.742;2023-06-22T17:48:50;27.00;99.90
4596;DHT22;2310;49.978;8.742;2023-06-22T17:52:53;27.30;99.90
4596;DHT22;2310;49.978;8.742;2023-06-22T17:56:55;27.60;99.90
4596;DHT22;2310;49.978;8.742;2023-06-22T18:00:57;27.60;99.90
4596;DHT22;2310;49.978;8.742;2023-06-22T18:05:02;27.50;99.90
4596;DHT22;2310;49.978;8.742;2023-06-22T18:09:04;27.50;99.90
4596;DHT22;2310;49.978;8.742;2023-06-22T18:13:07;27.50;99.90
4596;DHT22;2310;49.978;8.742;2023-06-22T18:17:09;27.20;99.90
4596;DHT22;2310;49.978;8.742;2023-06-22T18:21:12;27.10;99.90
4596;DHT22;2310;49.978;8.742;2023-06-22T18:25:14;26.70;99.90
4596;DHT22;2310;49.978;8.742;2023-06-22T18:29:20;26.70;99.90
4596;DHT22;2310;49.978;8.742;2023-06-22T18:33:22;26.90;99.90
4596;DHT22;2310;49.978;8.742;2023-06-22T18:37:24;27.10;99.90
4596;DHT22;2310;49.978;8.742;2023-06-22T18:41:37;26.50;99.90
4596;DHT22;2310;49.978;8.742;2023-06-22T18:45:39;26.40;99.90
4596;DHT22;2310;49.978;8.742;2023-06-22T18:49:46;25.70;99.90
4596;DHT22;2310;49.978;8.742;2023-06-22T18:54:01;25.30;99.90
4596;DHT22;2310;49.978;8.742;2023-06-22T18:58:11;25.60;99.90
4596;DHT22;2310;49.978;8.742;2023-06-22T19:02:09;26.10;99.90
4596;DHT22;2310;49.978;8.742;2023-06-22T19:06:11;26.00;99.90
4596;DHT22;2310;49.978;8.742;2023-06-22T19:14:26;26.00;99.90
4596;DHT22;2310;49.978;8.742;2023-06-22T19:18:41;26.10;99.90
4596;DHT22;2310;49.978;8.742;2023-06-22T19:22:44;26.30;99.90
4596;DHT22;2310;49.978;8.742;2023-06-22T19:26:51;26.30;99.90
4596;DHT22;2310;49.978;8.742;2023-06-22T19:30:59;26.40;99.90
4596;DHT22;2310;49.978;8.742;2023-06-22T19:35:01;26.10;99.90
4596;DHT22;2310;49.978;8.742;2023-06-22T19:39:04;25.80;99.90
4596;DHT22;2310;49.978;8.742;2023-06-22T19:43:06;25.90;99.90
4596;DHT22;2310;49.978;8.742;2023-06-22T19:47:08;25.80;99.90
4596;DHT22;2310;49.978;8.742;2023-06-22T19:51:10;25.90;99.90
4596;DHT22;2310;49.978;8.742;2023-06-22T19:55:12;26.00;99.90
4596;DHT22;2310;49.978;8.742;2023-06-22T19:59:19;26.00;99.90
4596;DHT22;2310;49.978;8.742;2023-06-22T20:03:30;25.50;99.90
4596;DHT22;2310;49.978;8.742;2023-06-22T20:07:40;25.10;99.90
4596;DHT22;2310;49.978;8.742;2023-06-22T20:11:42;25.30;99.90
4596;DHT22;2310;49.978;8.742;2023-06-22T20:15:44;25.20;99.90
4596;DHT22;2310;49.978;8.742;2023-06-22T20:19:52;25.20;99.90
4596;DHT22;2310;49.978;8.742;2023-06-22T20:23:51;25.00;99.90
4596;DHT22;2310;49.978;8.742;2023-06-22T20:27:52;25.10;99.90
4596;DHT22;2310;49.978;8.742;2023-06-22T20:32:13;25.30;99.90
4596;DHT22;2310;49.978;8.742;2023-06-22T20:36:15;25.20;99.90
4596;DHT22;2310;49.978;8.742;2023-06-22T20:40:18;25.20;99.90
4596;DHT22;2310;49.978;8.742;2023-06-22T20:44:19;25.20;99.90
4596;DHT22;2310;49.978;8.742;2023-06-22T20:48:21;25.10;99.90
4596;DHT22;2310;49.978;8.742;2023-06-22T20:52:28;25.10;99.90
4596;DHT22;2310;49.978;8.742;2023-06-22T20:56:30;24.90;99.90
4596;DHT22;2310;49.978;8.742;2023-06-22T21:00:34;24.80;99.90
4596;DHT22;2310;49.978;8.742;2023-06-22T21:04:36;24.50;99.90
4596;DHT22;2310;49.978;8.742;2023-06-22T21:08:39;24.40;99.90
4596;DHT22;2310;49.978;8.742;2023-06-22T21:12:40;24.40;99.90
4596;DHT22;2310;49.978;8.742;2023-06-22T21:16:42;24.40;99.90
4596;DHT22;2310;49.978;8.742;2023-06-22T21:20:43;24.40;99.90
4596;DHT22;2310;49.978;8.742;2023-06-22T21:24:48;24.40;99.90
4596;DHT22;2310;49.978;8.742;2023-06-22T21:28:48;24.50;99.90
4596;DHT22;2310;49.978;8.742;2023-06-22T21:32:50;24.60;99.90
4596;DHT22;2310;49.978;8.742;2023-06-22T21:36:51;24.60;99.90
4596;DHT22;2310;49.978;8.742;2023-06-22T21:40:53;24.30;99.90
4596;DHT22;2310;49.978;8.742;2023-06-22T21:44:57;24.10;99.90
4596;DHT22;2310;49.978;8.742;2023-06-22T21:48:58;24.20;99.90
4596;DHT22;2310;49.978;8.742;2023-06-22T21:53:00;24.40;99.90
4596;DHT22;2310;49.978;8.742;2023-06-22T21:57:03;24.20;99.90
4596;DHT22;2310;49.978;8.742;2023-06-22T22:01:04;24.00;99.90
4596;DHT22;2310;49.978;8.742;2023-06-22T22:05:06;24.10;99.90
4596;DHT22;2310;49.978;8.742;2023-06-22T22:09:08;23.80;99.90
4596;DHT22;2310;49.978;8.742;2023-06-22T22:13:10;23.80;99.90
4596;DHT22;2310;49.978;8.742;2023-06-22T22:17:12;23.90;99.90
4596;DHT22;2310;49.978;8.742;2023-06-22T22:21:14;24.10;99.90
4596;DHT22;2310;49.978;8.742;2023-06-22T22:25:16;24.00;99.90
4596;DHT22;2310;49.978;8.742;2023-06-22T22:29:17;24.20;99.90
4596;DHT22;2310;49.978;8.742;2023-06-22T22:33:19;24.20;99.90
4596;DHT22;2310;49.978;8.742;2023-06-22T22:37:20;24.20;99.90
4596;DHT22;2310;49.978;8.742;2023-06-22T22:41:22;24.40;99.90
4596;DHT22;2310;49.978;8.742;2023-06-22T22:45:23;24.20;99.90
4596;DHT22;2310;49.978;8.742;2023-06-22T22:49:24;24.30;99.90
4596;DHT22;2310;49.978;8.742;2023-06-22T22:53:26;24.20;99.90
4596;DHT22;2310;49.978;8.742;2023-06-22T22:57:28;24.20;99.90
4596;DHT22;2310;49.978;8.742;2023-06-22T23:01:29;23.90;99.90
4596;DHT22;2310;49.978;8.742;2023-06-22T23:05:31;24.00;99.90
4596;DHT22;2310;49.978;8.742;2023-06-22T23:09:33;23.90;99.90
4596;DHT22;2310;49.978;8.742;2023-06-22T23:13:34;23.70;99.90
4596;DHT22;2310;49.978;8.742;2023-06-22T23:17:36;23.50;99.90
4596;DHT22;2310;49.978;8.742;2023-06-22T23:21:38;23.30;99.90
4596;DHT22;2310;49.978;8.742;2023-06-22T23:25:39;23.10;99.90
4596;DHT22;2310;49.978;8.742;2023-06-22T23:29:41;22.90;99.90
4596;DHT22;2310;49.978;8.742;2023-06-22T23:33:45;22.60;99.90
4596;DHT22;2310;49.978;8.742;2023-06-22T23:37:46;22.40;99.90
4596;DHT22;2310;49.978;8.742;2023-06-22T23:41:48;22.20;99.90
4596;DHT22;2310;49.978;8.742;2023-06-22T23:45:49;22.00;99.90
4596;DHT22;2310;49.978;8.742;2023-06-22T23:49:51;22.10;99.90
4596;DHT22;2310;49.978;8.742;2023-06-22T23:53:52;22.00;99.90
4596;DHT22;2310;49.978;8.742;2023-06-22T23:57:53;21.70;99.90
